sensor_id;sensor_type;location;lat;lon;timestamp;P1;durP1;ratioP1;P2;durP2;ratioP2
12155;SDS011;6141;49.092;8.516;2023-06-19T00:00:58;7.03;;;6.43;;
12155;SDS011;6141;49.092;8.516;2023-06-19T00:03:28;7.17;;;6.30;;
12155;SDS011;6141;49.092;8.516;2023-06-19T00:05:56;7.20;;;6.60;;
12155;SDS011;6141;49.092;8.516;2023-06-19T00:08:25;6.50;;;5.90;;
12155;SDS011;6141;49.092;8.516;2023-06-19T00:10:56;11.53;;;6.70;;
12155;SDS011;6141;49.092;8.516;2023-06-19T00:13:25;7.17;;;6.53;;
12155;SDS011;6141;49.092;8.516;2023-06-19T00:15:54;8.43;;;6.90;;
12155;SDS011;6141;49.092;8.516;2023-06-19T00:18:28;8.70;;;6.90;;
12155;SDS011;6141;49.092;8.516;2023-06-19T00:20:58;8.17;;;6.43;;
12155;SDS011;6141;49.092;8.516;2023-06-19T00:23:27;6.53;;;5.90;;
12155;SDS011;6141;49.092;8.516;2023-06-19T00:25:55;6.67;;;5.97;;
12155;SDS011;6141;49.092;8.516;2023-06-19T00:28:25;7.50;;;5.57;;
12155;SDS011;6141;49.092;8.516;2023-06-19T00:30:54;10.83;;;6.10;;
12155;SDS011;6141;49.092;8.516;2023-06-19T00:33:23;6.13;;;5.13;;
12155;SDS011;6141;49.092;8.516;2023-06-19T00:35:53;8.47;;;5.33;;
12155;SDS011;6141;49.092;8.516;2023-06-19T00:38:22;6.30;;;5.67;;
12155;SDS011;6141;49.092;8.516;2023-06-19T00:40:52;6.97;;;5.23;;
12155;SDS011;6141;49.092;8.516;2023-06-19T00:43:20;7.47;;;5.57;;
12155;SDS011;6141;49.092;8.516;2023-06-19T00:45:52;11.47;;;6.17;;
12155;SDS011;6141;49.092;8.516;2023-06-19T00:48:21;6.73;;;5.43;;
12155;SDS011;6141;49.092;8.516;2023-06-19T00:50:52;9.70;;;5.80;;
12155;SDS011;6141;49.092;8.516;2023-06-19T00:53:23;7.50;;;5.17;;
12155;SDS011;6141;49.092;8.516;2023-06-19T00:55:53;6.80;;;5.43;;
12155;SDS011;6141;49.092;8.516;2023-06-19T00:58:24;10.37;;;4.83;;
12155;SDS011;6141;49.092;8.516;2023-06-19T01:00:52;8.27;;;4.70;;
12155;SDS011;6141;49.092;8.516;2023-06-19T01:03:34;5.03;;;4.33;;
12155;SDS011;6141;49.092;8.516;2023-06-19T01:06:07;7.23;;;4.50;;
12155;SDS011;6141;49.092;8.516;2023-06-19T01:08:47;7.27;;;4.37;;
12155;SDS011;6141;49.092;8.516;2023-06-19T01:11:25;4.80;;;4.23;;
12155;SDS011;6141;49.092;8.516;2023-06-19T01:13:59;5.17;;;3.83;;
12155;SDS011;6141;49.092;8.516;2023-06-19T01:16:37;6.67;;;3.70;;
12155;SDS011;6141;49.092;8.516;2023-06-19T01:19:08;6.77;;;3.90;;
12155;SDS011;6141;49.092;8.516;2023-06-19T01:21:40;6.27;;;3.83;;
12155;SDS011;6141;49.092;8.516;2023-06-19T01:24:12;4.93;;;3.40;;
12155;SDS011;6141;49.092;8.516;2023-06-19T01:26:40;13.13;;;3.37;;
12155;SDS011;6141;49.092;8.516;2023-06-19T01:29:13;5.10;;;3.03;;
12155;SDS011;6141;49.092;8.516;2023-06-19T01:31:45;7.07;;;2.87;;
12155;SDS011;6141;49.092;8.516;2023-06-19T01:34:18;2.70;;;2.50;;
12155;SDS011;6141;49.092;8.516;2023-06-19T01:36:52;6.13;;;2.67;;
12155;SDS011;6141;49.092;8.516;2023-06-19T01:39:25;3.33;;;2.40;;
12155;SDS011;6141;49.092;8.516;2023-06-19T01:41:54;4.40;;;2.70;;
12155;SDS011;6141;49.092;8.516;2023-06-19T01:44:24;5.17;;;2.73;;
12155;SDS011;6141;49.092;8.516;2023-06-19T01:46:53;3.63;;;2.50;;
12155;SDS011;6141;49.092;8.516;2023-06-19T01:49:22;9.50;;;2.90;;
12155;SDS011;6141;49.092;8.516;2023-06-19T01:51:50;3.80;;;2.67;;
12155;SDS011;6141;49.092;8.516;2023-06-19T01:54:19;3.43;;;2.90;;
12155;SDS011;6141;49.092;8.516;2023-06-19T01:56:48;2.70;;;2.30;;
12155;SDS011;6141;49.092;8.516;2023-06-19T01:59:18;2.90;;;2.60;;
12155;SDS011;6141;49.092;8.516;2023-06-19T02:01:47;4.10;;;2.70;;
12155;SDS011;6141;49.092;8.516;2023-06-19T02:04:16;3.93;;;2.47;;
12155;SDS011;6141;49.092;8.516;2023-06-19T02:06:45;3.67;;;2.70;;
12155;SDS011;6141;49.092;8.516;2023-06-19T02:09:14;5.97;;;2.67;;
12155;SDS011;6141;49.092;8.516;2023-06-19T02:11:42;4.47;;;3.27;;
12155;SDS011;6141;49.092;8.516;2023-06-19T02:14:12;3.10;;;2.80;;
12155;SDS011;6141;49.092;8.516;2023-06-19T02:16:41;5.27;;;3.27;;
12155;SDS011;6141;49.092;8.516;2023-06-19T02:19:10;2.77;;;2.40;;
12155;SDS011;6141;49.092;8.516;2023-06-19T02:21:48;3.77;;;3.00;;
12155;SDS011;6141;49.092;8.516;2023-06-19T02:24:25;3.73;;;2.90;;
12155;SDS011;6141;49.092;8.516;2023-06-19T02:26:54;4.27;;;2.87;;
12155;SDS011;6141;49.092;8.516;2023-06-19T02:29:24;3.17;;;2.87;;
12155;SDS011;6141;49.092;8.516;2023-06-19T02:31:53;3.40;;;3.10;;
12155;SDS011;6141;49.092;8.516;2023-06-19T02:34:22;4.77;;;2.93;;
12155;SDS011;6141;49.092;8.516;2023-06-19T02:36:51;5.90;;;3.27;;
12155;SDS011;6141;49.092;8.516;2023-06-19T02:39:20;5.83;;;3.00;;
12155;SDS011;6141;49.092;8.516;2023-06-19T02:41:50;4.00;;;3.20;;
12155;SDS011;6141;49.092;8.516;2023-06-19T02:44:19;3.90;;;2.90;;
12155;SDS011;6141;49.092;8.516;2023-06-19T02:46:48;3.43;;;2.87;;
12155;SDS011;6141;49.092;8.516;2023-06-19T02:49:17;5.37;;;2.90;;
12155;SDS011;6141;49.092;8.516;2023-06-19T02:51:45;3.63;;;3.00;;
12155;SDS011;6141;49.092;8.516;2023-06-19T02:54:14;3.77;;;2.83;;
12155;SDS011;6141;49.092;8.516;2023-06-19T02:56:43;4.60;;;2.87;;
12155;SDS011;6141;49.092;8.516;2023-06-19T02:59:11;3.23;;;2.93;;
12155;SDS011;6141;49.092;8.516;2023-06-19T03:01:40;3.33;;;2.70;;
12155;SDS011;6141;49.092;8.516;2023-06-19T03:32:44;3.40;;;2.87;;
12155;SDS011;6141;49.092;8.516;2023-06-19T03:35:26;3.27;;;2.97;;
12155;SDS011;6141;49.092;8.516;2023-06-19T03:37:56;3.43;;;3.13;;
12155;SDS011;6141;49.092;8.516;2023-06-19T03:40:25;4.77;;;3.23;;
12155;SDS011;6141;49.092;8.516;2023-06-19T03:43:05;3.70;;;3.40;;
12155;SDS011;6141;49.092;8.516;2023-06-19T03:45:34;4.63;;;2.83;;
12155;SDS011;6141;49.092;8.516;2023-06-19T03:48:06;3.60;;;3.30;;
12155;SDS011;6141;49.092;8.516;2023-06-19T03:50:34;3.67;;;3.33;;
12155;SDS011;6141;49.092;8.516;2023-06-19T03:53:03;4.13;;;3.30;;
12155;SDS011;6141;49.092;8.516;2023-06-19T03:55:32;3.60;;;3.30;;
12155;SDS011;6141;49.092;8.516;2023-06-19T03:58:01;4.27;;;3.40;;
12155;SDS011;6141;49.092;8.516;2023-06-19T04:00:31;4.20;;;3.10;;
12155;SDS011;6141;49.092;8.516;2023-06-19T04:03:00;3.90;;;3.50;;
12155;SDS011;6141;49.092;8.516;2023-06-19T04:05:30;3.53;;;3.20;;
12155;SDS011;6141;49.092;8.516;2023-06-19T04:07:59;3.37;;;3.07;;
12155;SDS011;6141;49.092;8.516;2023-06-19T04:10:27;3.67;;;3.37;;
12155;SDS011;6141;49.092;8.516;2023-06-19T04:12:57;3.70;;;3.23;;
12155;SDS011;6141;49.092;8.516;2023-06-19T04:15:26;3.57;;;3.20;;
12155;SDS011;6141;49.092;8.516;2023-06-19T04:17:59;3.50;;;3.03;;
12155;SDS011;6141;49.092;8.516;2023-06-19T04:20:31;3.23;;;3.00;;
12155;SDS011;6141;49.092;8.516;2023-06-19T04:23:01;3.30;;;3.00;;
12155;SDS011;6141;49.092;8.516;2023-06-19T04:25:30;3.17;;;2.70;;
12155;SDS011;6141;49.092;8.516;2023-06-19T04:28:00;2.93;;;2.70;;
12155;SDS011;6141;49.092;8.516;2023-06-19T04:30:30;3.27;;;2.90;;
12155;SDS011;6141;49.092;8.516;2023-06-19T04:32:58;3.50;;;2.60;;
12155;SDS011;6141;49.092;8.516;2023-06-19T04:35:28;3.47;;;3.17;;
12155;SDS011;6141;49.092;8.516;2023-06-19T04:37:58;4.33;;;2.60;;
12155;SDS011;6141;49.092;8.516;2023-06-19T04:40:27;3.30;;;3.00;;
12155;SDS011;6141;49.092;8.516;2023-06-19T04:42:56;4.17;;;2.80;;
12155;SDS011;6141;49.092;8.516;2023-06-19T04:45:26;5.33;;;2.50;;
12155;SDS011;6141;49.092;8.516;2023-06-19T04:47:54;3.33;;;3.00;;
12155;SDS011;6141;49.092;8.516;2023-06-19T04:50:23;3.23;;;2.93;;
12155;SDS011;6141;49.092;8.516;2023-06-19T04:52:54;3.17;;;2.90;;
12155;SDS011;6141;49.092;8.516;2023-06-19T04:55:24;5.27;;;3.00;;
12155;SDS011;6141;49.092;8.516;2023-06-19T04:57:53;3.40;;;3.10;;
12155;SDS011;6141;49.092;8.516;2023-06-19T05:00:22;3.03;;;2.83;;
12155;SDS011;6141;49.092;8.516;2023-06-19T05:02:51;3.27;;;2.93;;
12155;SDS011;6141;49.092;8.516;2023-06-19T05:05:26;3.20;;;2.90;;
12155;SDS011;6141;49.092;8.516;2023-06-19T05:07:55;2.80;;;2.60;;
12155;SDS011;6141;49.092;8.516;2023-06-19T05:10:24;3.23;;;2.93;;
12155;SDS011;6141;49.092;8.516;2023-06-19T05:12:54;3.80;;;2.73;;
12155;SDS011;6141;49.092;8.516;2023-06-19T05:15:22;3.77;;;3.37;;
12155;SDS011;6141;49.092;8.516;2023-06-19T05:17:51;3.27;;;2.90;;
12155;SDS011;6141;49.092;8.516;2023-06-19T05:20:19;3.37;;;3.00;;
12155;SDS011;6141;49.092;8.516;2023-06-19T05:22:48;3.50;;;3.20;;
12155;SDS011;6141;49.092;8.516;2023-06-19T05:25:16;3.60;;;3.30;;
12155;SDS011;6141;49.092;8.516;2023-06-19T05:27:47;3.97;;;3.30;;
12155;SDS011;6141;49.092;8.516;2023-06-19T05:30:15;3.63;;;3.33;;
12155;SDS011;6141;49.092;8.516;2023-06-19T05:32:44;7.53;;;3.60;;
12155;SDS011;6141;49.092;8.516;2023-06-19T05:35:12;3.50;;;3.17;;
12155;SDS011;6141;49.092;8.516;2023-06-19T05:37:43;3.40;;;3.10;;
12155;SDS011;6141;49.092;8.516;2023-06-19T05:40:15;3.77;;;3.30;;
12155;SDS011;6141;49.092;8.516;2023-06-19T05:42:44;3.80;;;3.50;;
12155;SDS011;6141;49.092;8.516;2023-06-19T05:45:14;4.53;;;3.43;;
12155;SDS011;6141;49.092;8.516;2023-06-19T05:47:42;3.60;;;3.30;;
12155;SDS011;6141;49.092;8.516;2023-06-19T05:50:11;4.10;;;3.50;;
12155;SDS011;6141;49.092;8.516;2023-06-19T05:52:40;3.63;;;3.33;;
12155;SDS011;6141;49.092;8.516;2023-06-19T05:55:09;3.33;;;3.03;;
12155;SDS011;6141;49.092;8.516;2023-06-19T05:57:39;4.13;;;3.67;;
12155;SDS011;6141;49.092;8.516;2023-06-19T06:00:07;3.77;;;3.20;;
12155;SDS011;6141;49.092;8.516;2023-06-19T06:02:42;5.17;;;3.73;;
12155;SDS011;6141;49.092;8.516;2023-06-19T06:05:10;3.60;;;3.30;;
12155;SDS011;6141;49.092;8.516;2023-06-19T06:07:40;4.27;;;3.87;;
12155;SDS011;6141;49.092;8.516;2023-06-19T06:10:09;4.07;;;3.70;;
12155;SDS011;6141;49.092;8.516;2023-06-19T06:12:38;4.17;;;3.47;;
12155;SDS011;6141;49.092;8.516;2023-06-19T06:15:07;4.00;;;3.70;;
12155;SDS011;6141;49.092;8.516;2023-06-19T06:17:42;4.20;;;3.80;;
12155;SDS011;6141;49.092;8.516;2023-06-19T06:20:11;3.90;;;3.53;;
12155;SDS011;6141;49.092;8.516;2023-06-19T06:22:41;3.60;;;3.30;;
12155;SDS011;6141;49.092;8.516;2023-06-19T06:25:10;7.00;;;4.03;;
12155;SDS011;6141;49.092;8.516;2023-06-19T06:27:40;4.73;;;3.83;;
12155;SDS011;6141;49.092;8.516;2023-06-19T06:30:09;4.23;;;3.47;;
12155;SDS011;6141;49.092;8.516;2023-06-19T06:32:39;4.20;;;3.60;;
12155;SDS011;6141;49.092;8.516;2023-06-19T06:35:11;6.23;;;3.23;;
12155;SDS011;6141;49.092;8.516;2023-06-19T06:37:40;4.53;;;3.73;;
12155;SDS011;6141;49.092;8.516;2023-06-19T06:40:11;4.60;;;3.60;;
12155;SDS011;6141;49.092;8.516;2023-06-19T06:42:40;3.50;;;3.10;;
12155;SDS011;6141;49.092;8.516;2023-06-19T06:45:09;2.83;;;2.63;;
12155;SDS011;6141;49.092;8.516;2023-06-19T06:47:38;6.00;;;3.33;;
12155;SDS011;6141;49.092;8.516;2023-06-19T06:50:11;3.40;;;2.93;;
12155;SDS011;6141;49.092;8.516;2023-06-19T06:52:40;3.27;;;2.97;;
12155;SDS011;6141;49.092;8.516;2023-06-19T06:55:08;2.70;;;2.50;;
12155;SDS011;6141;49.092;8.516;2023-06-19T06:57:37;3.40;;;3.00;;
12155;SDS011;6141;49.092;8.516;2023-06-19T07:00:06;6.73;;;2.70;;
12155;SDS011;6141;49.092;8.516;2023-06-19T07:02:38;3.20;;;2.90;;
12155;SDS011;6141;49.092;8.516;2023-06-19T07:05:08;5.10;;;2.70;;
12155;SDS011;6141;49.092;8.516;2023-06-19T07:07:39;4.93;;;2.60;;
12155;SDS011;6141;49.092;8.516;2023-06-19T07:10:08;2.60;;;2.40;;
12155;SDS011;6141;49.092;8.516;2023-06-19T07:12:44;4.33;;;2.60;;
12155;SDS011;6141;49.092;8.516;2023-06-19T07:15:17;3.07;;;2.77;;
12155;SDS011;6141;49.092;8.516;2023-06-19T07:17:48;2.80;;;2.60;;
12155;SDS011;6141;49.092;8.516;2023-06-19T07:20:19;2.47;;;2.10;;
12155;SDS011;6141;49.092;8.516;2023-06-19T07:22:51;3.50;;;2.83;;
12155;SDS011;6141;49.092;8.516;2023-06-19T07:25:20;3.13;;;2.20;;
12155;SDS011;6141;49.092;8.516;2023-06-19T07:27:51;4.70;;;2.40;;
12155;SDS011;6141;49.092;8.516;2023-06-19T07:30:20;3.23;;;2.30;;
12155;SDS011;6141;49.092;8.516;2023-06-19T07:32:49;4.33;;;2.97;;
12155;SDS011;6141;49.092;8.516;2023-06-19T07:35:17;3.03;;;2.80;;
12155;SDS011;6141;49.092;8.516;2023-06-19T07:37:45;4.37;;;2.77;;
12155;SDS011;6141;49.092;8.516;2023-06-19T07:40:15;3.57;;;2.90;;
12155;SDS011;6141;49.092;8.516;2023-06-19T07:42:43;5.77;;;2.83;;
12155;SDS011;6141;49.092;8.516;2023-06-19T07:45:12;3.43;;;3.13;;
12155;SDS011;6141;49.092;8.516;2023-06-19T07:47:42;4.13;;;2.70;;
12155;SDS011;6141;49.092;8.516;2023-06-19T07:50:11;3.20;;;2.90;;
12155;SDS011;6141;49.092;8.516;2023-06-19T07:52:40;3.43;;;3.13;;
12155;SDS011;6141;49.092;8.516;2023-06-19T07:55:08;3.67;;;3.27;;
12155;SDS011;6141;49.092;8.516;2023-06-19T07:57:39;4.40;;;3.57;;
12155;SDS011;6141;49.092;8.516;2023-06-19T08:00:07;3.50;;;3.20;;
12155;SDS011;6141;49.092;8.516;2023-06-19T08:02:38;3.67;;;3.37;;
12155;SDS011;6141;49.092;8.516;2023-06-19T08:05:07;4.57;;;3.37;;
12155;SDS011;6141;49.092;8.516;2023-06-19T08:07:37;3.70;;;3.40;;
12155;SDS011;6141;49.092;8.516;2023-06-19T08:10:06;3.80;;;3.50;;
12155;SDS011;6141;49.092;8.516;2023-06-19T08:12:54;3.90;;;3.57;;
12155;SDS011;6141;49.092;8.516;2023-06-19T08:15:24;3.90;;;3.60;;
12155;SDS011;6141;49.092;8.516;2023-06-19T08:17:53;4.07;;;3.60;;
12155;SDS011;6141;49.092;8.516;2023-06-19T08:20:22;3.30;;;3.00;;
12155;SDS011;6141;49.092;8.516;2023-06-19T08:22:51;3.47;;;3.17;;
12155;SDS011;6141;49.092;8.516;2023-06-19T08:25:20;3.73;;;3.43;;
12155;SDS011;6141;49.092;8.516;2023-06-19T08:27:49;3.60;;;3.30;;
12155;SDS011;6141;49.092;8.516;2023-06-19T08:30:19;5.67;;;3.60;;
12155;SDS011;6141;49.092;8.516;2023-06-19T08:32:47;3.73;;;3.43;;
12155;SDS011;6141;49.092;8.516;2023-06-19T08:35:16;3.70;;;3.37;;
12155;SDS011;6141;49.092;8.516;2023-06-19T08:37:44;4.77;;;3.40;;
12155;SDS011;6141;49.092;8.516;2023-06-19T08:40:13;3.90;;;3.50;;
12155;SDS011;6141;49.092;8.516;2023-06-19T08:42:42;6.07;;;4.00;;
12155;SDS011;6141;49.092;8.516;2023-06-19T08:45:11;3.73;;;3.43;;
12155;SDS011;6141;49.092;8.516;2023-06-19T08:47:42;4.10;;;3.73;;
12155;SDS011;6141;49.092;8.516;2023-06-19T08:50:11;4.77;;;4.20;;
12155;SDS011;6141;49.092;8.516;2023-06-19T08:52:39;4.73;;;3.60;;
12155;SDS011;6141;49.092;8.516;2023-06-19T08:55:08;3.80;;;3.50;;
12155;SDS011;6141;49.092;8.516;2023-06-19T08:57:38;4.80;;;3.70;;
12155;SDS011;6141;49.092;8.516;2023-06-19T09:00:08;6.07;;;3.83;;
12155;SDS011;6141;49.092;8.516;2023-06-19T09:02:39;3.97;;;3.67;;
12155;SDS011;6141;49.092;8.516;2023-06-19T09:05:14;5.77;;;3.90;;
12155;SDS011;6141;49.092;8.516;2023-06-19T09:07:53;4.17;;;3.80;;
12155;SDS011;6141;49.092;8.516;2023-06-19T09:10:22;6.77;;;3.97;;
12155;SDS011;6141;49.092;8.516;2023-06-19T09:12:59;4.60;;;3.70;;
12155;SDS011;6141;49.092;8.516;2023-06-19T09:15:29;4.47;;;3.70;;
12155;SDS011;6141;49.092;8.516;2023-06-19T09:18:01;4.77;;;3.63;;
12155;SDS011;6141;49.092;8.516;2023-06-19T09:20:37;5.33;;;4.20;;
12155;SDS011;6141;49.092;8.516;2023-06-19T09:23:09;5.27;;;4.47;;
12155;SDS011;6141;49.092;8.516;2023-06-19T09:25:45;4.17;;;3.87;;
12155;SDS011;6141;49.092;8.516;2023-06-19T09:28:18;4.50;;;4.10;;
12155;SDS011;6141;49.092;8.516;2023-06-19T09:30:54;4.97;;;4.10;;
12155;SDS011;6141;49.092;8.516;2023-06-19T09:33:25;4.47;;;4.07;;
12155;SDS011;6141;49.092;8.516;2023-06-19T09:35:55;4.37;;;3.97;;
12155;SDS011;6141;49.092;8.516;2023-06-19T09:38:25;5.40;;;4.03;;
12155;SDS011;6141;49.092;8.516;2023-06-19T09:40:55;5.60;;;3.87;;
12155;SDS011;6141;49.092;8.516;2023-06-19T09:43:29;4.40;;;4.00;;
12155;SDS011;6141;49.092;8.516;2023-06-19T09:46:02;4.53;;;3.93;;
12155;SDS011;6141;49.092;8.516;2023-06-19T09:48:32;5.37;;;4.40;;
12155;SDS011;6141;49.092;8.516;2023-06-19T09:51:05;5.73;;;3.90;;
12155;SDS011;6141;49.092;8.516;2023-06-19T09:53:38;4.13;;;3.80;;
12155;SDS011;6141;49.092;8.516;2023-06-19T09:56:08;4.53;;;3.23;;
12155;SDS011;6141;49.092;8.516;2023-06-19T09:58:37;4.20;;;3.80;;
12155;SDS011;6141;49.092;8.516;2023-06-19T10:01:06;4.13;;;3.23;;
12155;SDS011;6141;49.092;8.516;2023-06-19T10:03:36;3.73;;;3.30;;
12155;SDS011;6141;49.092;8.516;2023-06-19T10:06:12;4.97;;;3.20;;
12155;SDS011;6141;49.092;8.516;2023-06-19T10:08:42;4.30;;;3.90;;
12155;SDS011;6141;49.092;8.516;2023-06-19T10:11:12;4.40;;;4.00;;
12155;SDS011;6141;49.092;8.516;2023-06-19T10:13:41;4.77;;;3.80;;
12155;SDS011;6141;49.092;8.516;2023-06-19T10:16:19;6.03;;;4.00;;
12155;SDS011;6141;49.092;8.516;2023-06-19T10:18:48;4.93;;;4.03;;
12155;SDS011;6141;49.092;8.516;2023-06-19T10:21:19;8.20;;;4.30;;
12155;SDS011;6141;49.092;8.516;2023-06-19T10:23:53;9.20;;;4.30;;
12155;SDS011;6141;49.092;8.516;2023-06-19T10:26:31;4.60;;;4.20;;
12155;SDS011;6141;49.092;8.516;2023-06-19T10:29:02;4.53;;;4.13;;
12155;SDS011;6141;49.092;8.516;2023-06-19T10:31:41;4.70;;;4.30;;
12155;SDS011;6141;49.092;8.516;2023-06-19T10:34:10;4.73;;;4.23;;
12155;SDS011;6141;49.092;8.516;2023-06-19T10:36:40;5.27;;;4.43;;
12155;SDS011;6141;49.092;8.516;2023-06-19T10:39:09;5.33;;;4.57;;
12155;SDS011;6141;49.092;8.516;2023-06-19T10:41:39;7.40;;;4.13;;
12155;SDS011;6141;49.092;8.516;2023-06-19T10:44:08;5.30;;;4.00;;
12155;SDS011;6141;49.092;8.516;2023-06-19T10:46:39;4.53;;;4.03;;
12155;SDS011;6141;49.092;8.516;2023-06-19T10:49:08;4.30;;;3.83;;
12155;SDS011;6141;49.092;8.516;2023-06-19T10:51:41;4.70;;;4.20;;
12155;SDS011;6141;49.092;8.516;2023-06-19T10:54:11;4.87;;;3.87;;
12155;SDS011;6141;49.092;8.516;2023-06-19T10:56:39;4.03;;;3.73;;
12155;SDS011;6141;49.092;8.516;2023-06-19T10:59:10;5.00;;;4.07;;
12155;SDS011;6141;49.092;8.516;2023-06-19T11:01:40;4.63;;;4.23;;
12155;SDS011;6141;49.092;8.516;2023-06-19T11:04:11;4.57;;;4.17;;
12155;SDS011;6141;49.092;8.516;2023-06-19T11:06:44;4.47;;;4.07;;
12155;SDS011;6141;49.092;8.516;2023-06-19T11:09:14;4.47;;;4.07;;
12155;SDS011;6141;49.092;8.516;2023-06-19T11:11:42;4.83;;;4.40;;
12155;SDS011;6141;49.092;8.516;2023-06-19T11:14:12;5.50;;;4.60;;
12155;SDS011;6141;49.092;8.516;2023-06-19T11:16:44;5.03;;;4.23;;
12155;SDS011;6141;49.092;8.516;2023-06-19T11:19:15;4.60;;;4.10;;
12155;SDS011;6141;49.092;8.516;2023-06-19T11:21:46;4.60;;;4.20;;
12155;SDS011;6141;49.092;8.516;2023-06-19T11:24:16;4.23;;;3.87;;
12155;SDS011;6141;49.092;8.516;2023-06-19T11:26:47;5.10;;;4.43;;
12155;SDS011;6141;49.092;8.516;2023-06-19T11:29:20;4.97;;;4.20;;
12155;SDS011;6141;49.092;8.516;2023-06-19T11:31:51;4.80;;;4.10;;
12155;SDS011;6141;49.092;8.516;2023-06-19T11:34:30;4.17;;;3.87;;
12155;SDS011;6141;49.092;8.516;2023-06-19T11:37:01;4.60;;;4.13;;
12155;SDS011;6141;49.092;8.516;2023-06-19T11:39:32;4.37;;;3.97;;
12155;SDS011;6141;49.092;8.516;2023-06-19T11:42:01;3.50;;;3.20;;
12155;SDS011;6141;49.092;8.516;2023-06-19T11:44:29;4.00;;;3.70;;
12155;SDS011;6141;49.092;8.516;2023-06-19T11:47:00;4.47;;;3.93;;
12155;SDS011;6141;49.092;8.516;2023-06-19T11:49:34;4.67;;;4.27;;
12155;SDS011;6141;49.092;8.516;2023-06-19T11:52:05;4.20;;;3.80;;
12155;SDS011;6141;49.092;8.516;2023-06-19T11:54:34;4.03;;;3.70;;
12155;SDS011;6141;49.092;8.516;2023-06-19T11:57:04;4.50;;;3.80;;
12155;SDS011;6141;49.092;8.516;2023-06-19T11:59:33;5.10;;;4.17;;
12155;SDS011;6141;49.092;8.516;2023-06-19T12:02:02;4.90;;;4.33;;
12155;SDS011;6141;49.092;8.516;2023-06-19T12:04:31;4.83;;;4.10;;
12155;SDS011;6141;49.092;8.516;2023-06-19T12:07:01;3.87;;;3.50;;
12155;SDS011;6141;49.092;8.516;2023-06-19T12:09:32;4.47;;;3.43;;
12155;SDS011;6141;49.092;8.516;2023-06-19T12:12:01;4.10;;;3.10;;
12155;SDS011;6141;49.092;8.516;2023-06-19T12:14:30;3.40;;;3.10;;
12155;SDS011;6141;49.092;8.516;2023-06-19T12:16:59;4.00;;;3.60;;
12155;SDS011;6141;49.092;8.516;2023-06-19T12:19:29;3.97;;;2.90;;
12155;SDS011;6141;49.092;8.516;2023-06-19T12:21:59;3.27;;;2.97;;
12155;SDS011;6141;49.092;8.516;2023-06-19T12:24:28;4.30;;;2.93;;
12155;SDS011;6141;49.092;8.516;2023-06-19T12:26:57;3.03;;;2.83;;
12155;SDS011;6141;49.092;8.516;2023-06-19T12:29:26;3.03;;;2.72;;
12155;SDS011;6141;49.092;8.516;2023-06-19T12:31:59;4.00;;;3.07;;
12155;SDS011;6141;49.092;8.516;2023-06-19T12:34:29;3.53;;;3.22;;
12155;SDS011;6141;49.092;8.516;2023-06-19T12:36:57;3.43;;;3.10;;
12155;SDS011;6141;49.092;8.516;2023-06-19T12:39:26;3.70;;;3.28;;
12155;SDS011;6141;49.092;8.516;2023-06-19T12:41:54;3.63;;;3.15;;
12155;SDS011;6141;49.092;8.516;2023-06-19T12:44:24;3.50;;;3.20;;
12155;SDS011;6141;49.092;8.516;2023-06-19T12:46:53;3.40;;;3.05;;
12155;SDS011;6141;49.092;8.516;2023-06-19T12:49:21;3.25;;;3.05;;
12155;SDS011;6141;49.092;8.516;2023-06-19T12:51:50;3.53;;;3.22;;
12155;SDS011;6141;49.092;8.516;2023-06-19T12:54:19;3.42;;;3.10;;
12155;SDS011;6141;49.092;8.516;2023-06-19T12:56:47;3.47;;;3.17;;
12155;SDS011;6141;49.092;8.516;2023-06-19T12:59:17;4.15;;;3.10;;
12155;SDS011;6141;49.092;8.516;2023-06-19T13:01:47;4.05;;;3.30;;
12155;SDS011;6141;49.092;8.516;2023-06-19T13:04:15;3.17;;;2.88;;
12155;SDS011;6141;49.092;8.516;2023-06-19T13:06:44;3.35;;;2.83;;
12155;SDS011;6141;49.092;8.516;2023-06-19T13:09:13;3.28;;;3.08;;
12155;SDS011;6141;49.092;8.516;2023-06-19T13:11:42;3.78;;;3.30;;
12155;SDS011;6141;49.092;8.516;2023-06-19T13:14:11;3.65;;;2.85;;
12155;SDS011;6141;49.092;8.516;2023-06-19T13:16:40;3.50;;;3.20;;
12155;SDS011;6141;49.092;8.516;2023-06-19T13:19:15;3.03;;;2.80;;
12155;SDS011;6141;49.092;8.516;2023-06-19T13:21:44;3.30;;;3.00;;
12155;SDS011;6141;49.092;8.516;2023-06-19T13:24:14;3.92;;;3.53;;
12155;SDS011;6141;49.092;8.516;2023-06-19T13:26:43;4.03;;;3.63;;
12155;SDS011;6141;49.092;8.516;2023-06-19T13:29:12;4.15;;;3.38;;
12155;SDS011;6141;49.092;8.516;2023-06-19T13:31:40;3.85;;;3.55;;
12155;SDS011;6141;49.092;8.516;2023-06-19T13:34:08;4.00;;;3.70;;
12155;SDS011;6141;49.092;8.516;2023-06-19T13:36:38;4.80;;;3.30;;
12155;SDS011;6141;49.092;8.516;2023-06-19T13:39:07;3.85;;;3.28;;
12155;SDS011;6141;49.092;8.516;2023-06-19T13:41:36;5.57;;;3.78;;
12155;SDS011;6141;49.092;8.516;2023-06-19T13:44:04;4.20;;;3.53;;
12155;SDS011;6141;49.092;8.516;2023-06-19T13:46:35;3.90;;;3.60;;
12155;SDS011;6141;49.092;8.516;2023-06-19T13:49:04;3.70;;;3.40;;
12155;SDS011;6141;49.092;8.516;2023-06-19T13:51:33;3.35;;;3.15;;
12155;SDS011;6141;49.092;8.516;2023-06-19T13:54:03;4.90;;;3.58;;
12155;SDS011;6141;49.092;8.516;2023-06-19T13:56:32;4.93;;;3.75;;
12155;SDS011;6141;49.092;8.516;2023-06-19T13:59:01;4.63;;;3.60;;
12155;SDS011;6141;49.092;8.516;2023-06-19T14:01:30;3.50;;;3.20;;
12155;SDS011;6141;49.092;8.516;2023-06-19T14:03:59;4.53;;;3.50;;
12155;SDS011;6141;49.092;8.516;2023-06-19T14:06:28;5.45;;;3.60;;
12155;SDS011;6141;49.092;8.516;2023-06-19T14:08:57;3.28;;;3.08;;
12155;SDS011;6141;49.092;8.516;2023-06-19T14:11:26;5.68;;;3.40;;
12155;SDS011;6141;49.092;8.516;2023-06-19T14:13:56;3.55;;;3.25;;
12155;SDS011;6141;49.092;8.516;2023-06-19T14:16:24;5.55;;;4.43;;
12155;SDS011;6141;49.092;8.516;2023-06-19T14:18:53;3.50;;;3.20;;
12155;SDS011;6141;49.092;8.516;2023-06-19T14:23:50;3.85;;;3.55;;
12155;SDS011;6141;49.092;8.516;2023-06-19T14:26:19;4.25;;;3.50;;
12155;SDS011;6141;49.092;8.516;2023-06-19T14:28:49;3.70;;;3.40;;
12155;SDS011;6141;49.092;8.516;2023-06-19T14:31:21;3.88;;;3.50;;
12155;SDS011;6141;49.092;8.516;2023-06-19T14:33:50;3.92;;;3.50;;
12155;SDS011;6141;49.092;8.516;2023-06-19T14:36:18;4.18;;;3.78;;
12155;SDS011;6141;49.092;8.516;2023-06-19T14:38:47;3.35;;;3.08;;
12155;SDS011;6141;49.092;8.516;2023-06-19T14:41:15;3.50;;;3.20;;
12155;SDS011;6141;49.092;8.516;2023-06-19T14:43:44;3.53;;;3.22;;
12155;SDS011;6141;49.092;8.516;2023-06-19T14:46:14;3.70;;;3.40;;
12155;SDS011;6141;49.092;8.516;2023-06-19T14:49:04;3.70;;;3.40;;
12155;SDS011;6141;49.092;8.516;2023-06-19T14:51:34;3.80;;;3.50;;
12155;SDS011;6141;49.092;8.516;2023-06-19T14:54:03;4.22;;;3.33;;
12155;SDS011;6141;49.092;8.516;2023-06-19T14:56:31;3.92;;;3.63;;
12155;SDS011;6141;49.092;8.516;2023-06-19T14:59:00;4.03;;;3.55;;
12155;SDS011;6141;49.092;8.516;2023-06-19T15:01:31;3.90;;;3.38;;
12155;SDS011;6141;49.092;8.516;2023-06-19T15:03:59;4.32;;;3.60;;
12155;SDS011;6141;49.092;8.516;2023-06-19T15:06:28;4.25;;;3.17;;
12155;SDS011;6141;49.092;8.516;2023-06-19T15:08:56;3.35;;;3.05;;
12155;SDS011;6141;49.092;8.516;2023-06-19T15:11:28;3.83;;;3.40;;
12155;SDS011;6141;49.092;8.516;2023-06-19T15:13:56;3.50;;;3.25;;
12155;SDS011;6141;49.092;8.516;2023-06-19T15:16:27;3.30;;;3.00;;
12155;SDS011;6141;49.092;8.516;2023-06-19T15:18:57;3.35;;;3.13;;
12155;SDS011;6141;49.092;8.516;2023-06-19T15:21:26;3.53;;;3.22;;
12155;SDS011;6141;49.092;8.516;2023-06-19T15:23:54;5.63;;;3.60;;
12155;SDS011;6141;49.092;8.516;2023-06-19T15:26:24;3.60;;;3.30;;
12155;SDS011;6141;49.092;8.516;2023-06-19T15:28:58;4.32;;;3.40;;
12155;SDS011;6141;49.092;8.516;2023-06-19T15:31:26;3.40;;;3.15;;
12155;SDS011;6141;49.092;8.516;2023-06-19T15:33:54;3.63;;;3.15;;
12155;SDS011;6141;49.092;8.516;2023-06-19T15:36:24;3.85;;;3.50;;
12155;SDS011;6141;49.092;8.516;2023-06-19T15:38:55;4.05;;;3.50;;
12155;SDS011;6141;49.092;8.516;2023-06-19T15:41:26;3.73;;;3.43;;
12155;SDS011;6141;49.092;8.516;2023-06-19T15:43:54;3.35;;;3.05;;
12155;SDS011;6141;49.092;8.516;2023-06-19T15:46:23;4.35;;;3.45;;
12155;SDS011;6141;49.092;8.516;2023-06-19T15:48:53;4.30;;;3.10;;